sensor_id;sensor_type;location;lat;lon;timestamp;temperature;humidity
2611;DHT22;5612;51.134;17.058;2022-08-25T00:01:47;20.90;99.90
2611;DHT22;5612;51.134;17.058;2022-08-25T00:04:18;20.90;99.90
2611;DHT22;5612;51.134;17.058;2022-08-25T00:06:48;20.90;99.90
2611;DHT22;5612;51.134;17.058;2022-08-25T00:09:21;20.90;99.90
2611;DHT22;5612;51.134;17.058;2022-08-25T00:11:51;20.90;99.90
2611;DHT22;5612;51.134;17.058;2022-08-25T00:14:25;20.90;99.90
2611;DHT22;5612;51.134;17.058;2022-08-25T00:16:54;20.90;99.90
2611;DHT22;5612;51.134;17.058;2022-08-25T00:19:25;20.80;99.90
2611;DHT22;5612;51.134;17.058;2022-08-25T00:21:55;20.80;99.90
2611;DHT22;5612;51.134;17.058;2022-08-25T00:24:24;20.70;99.90
2611;DHT22;5612;51.134;17.058;2022-08-25T00:26:55;20.70;99.90
2611;DHT22;5612;51.134;17.058;2022-08-25T00:29:26;20.70;99.90
2611;DHT22;5612;51.134;17.058;2022-08-25T00:31:55;20.60;99.90
2611;DHT22;5612;51.134;17.058;2022-08-25T00:34:26;20.60;99.90
2611;DHT22;5612;51.134;17.058;2022-08-25T00:36:56;20.50;99.90
2611;DHT22;5612;51.134;17.058;2022-08-25T00:39:25;20.50;99.90
2611;DHT22;5612;51.134;17.058;2022-08-25T00:41:56;20.50;99.90
2611;DHT22;5612;51.134;17.058;2022-08-25T00:44:29;20.60;99.90
2611;DHT22;5612;51.134;17.058;2022-08-25T00:47:00;20.50;99.90
2611;DHT22;5612;51.134;17.058;2022-08-25T00:49:32;20.50;99.90
2611;DHT22;5612;51.134;17.058;2022-08-25T00:52:05;20.50;99.90
2611;DHT22;5612;51.134;17.058;2022-08-25T00:54:38;20.50;99.90
2611;DHT22;5612;51.134;17.058;2022-08-25T00:57:10;20.60;99.90
2611;DHT22;5612;51.134;17.058;2022-08-25T00:59:41;20.60;99.90
2611;DHT22;5612;51.134;17.058;2022-08-25T01:02:11;20.60;99.90
2611;DHT22;5612;51.134;17.058;2022-08-25T01:04:41;20.60;99.90
2611;DHT22;5612;51.134;17.058;2022-08-25T01:07:17;20.70;99.90
2611;DHT22;5612;51.134;17.058;2022-08-25T01:09:49;20.60;99.90
2611;DHT22;5612;51.134;17.058;2022-08-25T01:12:19;20.70;99.90
2611;DHT22;5612;51.134;17.058;2022-08-25T01:14:52;20.80;99.90
2611;DHT22;5612;51.134;17.058;2022-08-25T01:17:21;20.80;99.90
2611;DHT22;5612;51.134;17.058;2022-08-25T01:19:54;20.90;99.90
2611;DHT22;5612;51.134;17.058;2022-08-25T01:22:24;20.90;99.90
2611;DHT22;5612;51.134;17.058;2022-08-25T01:24:58;20.80;99.90
2611;DHT22;5612;51.134;17.058;2022-08-25T01:27:30;20.70;99.90
2611;DHT22;5612;51.134;17.058;2022-08-25T01:29:58;20.70;99.90
2611;DHT22;5612;51.134;17.058;2022-08-25T01:32:27;20.70;99.90
2611;DHT22;5612;51.134;17.058;2022-08-25T01:34:56;20.70;99.90
2611;DHT22;5612;51.134;17.058;2022-08-25T01:37:26;20.70;99.90
2611;DHT22;5612;51.134;17.058;2022-08-25T01:39:55;20.70;99.90
2611;DHT22;5612;51.134;17.058;2022-08-25T01:42:36;20.70;99.90
2611;DHT22;5612;51.134;17.058;2022-08-25T01:45:07;20.60;99.90
2611;DHT22;5612;51.134;17.058;2022-08-25T01:47:37;20.60;99.90
2611;DHT22;5612;51.134;17.058;2022-08-25T01:50:06;20.60;99.90
2611;DHT22;5612;51.134;17.058;2022-08-25T01:52:45;20.60;99.90
2611;DHT22;5612;51.134;17.058;2022-08-25T01:55:15;20.60;99.90
2611;DHT22;5612;51.134;17.058;2022-08-25T01:57:43;20.60;99.90
2611;DHT22;5612;51.134;17.058;2022-08-25T02:00:14;20.50;99.90
2611;DHT22;5612;51.134;17.058;2022-08-25T02:02:43;20.50;99.90
2611;DHT22;5612;51.134;17.058;2022-08-25T02:05:13;20.50;99.90
2611;DHT22;5612;51.134;17.058;2022-08-25T02:07:50;20.50;99.90
2611;DHT22;5612;51.134;17.058;2022-08-25T02:10:19;20.40;99.90
2611;DHT22;5612;51.134;17.058;2022-08-25T02:12:49;20.30;99.90
2611;DHT22;5612;51.134;17.058;2022-08-25T02:15:20;20.30;99.90
2611;DHT22;5612;51.134;17.058;2022-08-25T02:17:49;20.30;99.90
2611;DHT22;5612;51.134;17.058;2022-08-25T02:20:18;20.30;99.90
2611;DHT22;5612;51.134;17.058;2022-08-25T02:22:46;20.30;99.90
2611;DHT22;5612;51.134;17.058;2022-08-25T02:25:24;20.20;99.90
2611;DHT22;5612;51.134;17.058;2022-08-25T02:27:53;20.10;99.90
2611;DHT22;5612;51.134;17.058;2022-08-25T02:30:22;20.10;99.90
2611;DHT22;5612;51.134;17.058;2022-08-25T02:32:50;20.20;99.90
2611;DHT22;5612;51.134;17.058;2022-08-25T02:35:19;20.20;99.90
2611;DHT22;5612;51.134;17.058;2022-08-25T02:37:49;20.20;99.90
2611;DHT22;5612;51.134;17.058;2022-08-25T02:40:20;20.20;99.90
2611;DHT22;5612;51.134;17.058;2022-08-25T02:42:51;20.20;99.90
2611;DHT22;5612;51.134;17.058;2022-08-25T02:45:20;20.20;99.90
2611;DHT22;5612;51.134;17.058;2022-08-25T02:47:49;20.10;99.90
2611;DHT22;5612;51.134;17.058;2022-08-25T02:50:18;20.00;99.90
2611;DHT22;5612;51.134;17.058;2022-08-25T02:52:46;20.00;99.90
2611;DHT22;5612;51.134;17.058;2022-08-25T02:55:17;20.00;99.90
2611;DHT22;5612;51.134;17.058;2022-08-25T02:57:46;20.00;99.90
2611;DHT22;5612;51.134;17.058;2022-08-25T03:00:17;20.00;99.90
2611;DHT22;5612;51.134;17.058;2022-08-25T03:02:46;20.00;99.90
2611;DHT22;5612;51.134;17.058;2022-08-25T03:05:15;20.00;99.90
2611;DHT22;5612;51.134;17.058;2022-08-25T03:07:44;20.00;99.90
2611;DHT22;5612;51.134;17.058;2022-08-25T03:10:15;20.00;99.90
2611;DHT22;5612;51.134;17.058;2022-08-25T03:12:46;19.90;99.90
2611;DHT22;5612;51.134;17.058;2022-08-25T03:15:17;20.00;99.90
2611;DHT22;5612;51.134;17.058;2022-08-25T03:17:46;20.00;99.90
2611;DHT22;5612;51.134;17.058;2022-08-25T03:20:17;20.00;99.90
2611;DHT22;5612;51.134;17.058;2022-08-25T03:22:46;20.00;99.90
2611;DHT22;5612;51.134;17.058;2022-08-25T03:25:15;20.00;99.90
2611;DHT22;5612;51.134;17.058;2022-08-25T03:28:02;19.90;99.90
2611;DHT22;5612;51.134;17.058;2022-08-25T03:30:33;19.90;99.90
2611;DHT22;5612;51.134;17.058;2022-08-25T03:33:02;19.90;99.90
2611;DHT22;5612;51.134;17.058;2022-08-25T03:35:30;19.90;99.90
2611;DHT22;5612;51.134;17.058;2022-08-25T03:37:59;19.90;99.90
2611;DHT22;5612;51.134;17.058;2022-08-25T03:40:28;19.90;99.90
2611;DHT22;5612;51.134;17.058;2022-08-25T03:42:57;19.90;99.90
2611;DHT22;5612;51.134;17.058;2022-08-25T03:45:26;20.00;99.90
2611;DHT22;5612;51.134;17.058;2022-08-25T03:47:56;19.90;99.90
2611;DHT22;5612;51.134;17.058;2022-08-25T03:50:25;20.00;99.90
2611;DHT22;5612;51.134;17.058;2022-08-25T03:52:55;20.00;99.90
2611;DHT22;5612;51.134;17.058;2022-08-25T03:55:24;20.00;99.90
2611;DHT22;5612;51.134;17.058;2022-08-25T03:57:55;20.10;99.90
2611;DHT22;5612;51.134;17.058;2022-08-25T04:00:23;20.00;99.90
2611;DHT22;5612;51.134;17.058;2022-08-25T04:02:52;20.10;99.90
2611;DHT22;5612;51.134;17.058;2022-08-25T04:05:22;20.10;99.90
2611;DHT22;5612;51.134;17.058;2022-08-25T04:07:52;20.10;99.90
2611;DHT22;5612;51.134;17.058;2022-08-25T04:10:22;20.00;99.90
2611;DHT22;5612;51.134;17.058;2022-08-25T04:12:50;20.00;99.90
2611;DHT22;5612;51.134;17.058;2022-08-25T04:15:19;20.00;99.90
2611;DHT22;5612;51.134;17.058;2022-08-25T04:17:48;19.90;99.90
2611;DHT22;5612;51.134;17.058;2022-08-25T04:20:21;20.00;99.90
2611;DHT22;5612;51.134;17.058;2022-08-25T04:22:50;19.90;99.90
2611;DHT22;5612;51.134;17.058;2022-08-25T04:25:19;19.90;99.90
2611;DHT22;5612;51.134;17.058;2022-08-25T04:27:47;19.90;99.90
2611;DHT22;5612;51.134;17.058;2022-08-25T04:30:17;19.90;99.90
2611;DHT22;5612;51.134;17.058;2022-08-25T04:32:45;20.00;99.90
2611;DHT22;5612;51.134;17.058;2022-08-25T04:35:15;20.00;99.90
2611;DHT22;5612;51.134;17.058;2022-08-25T04:37:45;20.00;99.90
2611;DHT22;5612;51.134;17.058;2022-08-25T04:40:15;19.90;99.90
2611;DHT22;5612;51.134;17.058;2022-08-25T04:42:43;20.00;99.90
2611;DHT22;5612;51.134;17.058;2022-08-25T04:45:14;20.10;99.90
2611;DHT22;5612;51.134;17.058;2022-08-25T04:47:43;20.10;99.90
2611;DHT22;5612;51.134;17.058;2022-08-25T04:50:12;20.20;99.90
2611;DHT22;5612;51.134;17.058;2022-08-25T04:52:40;20.20;99.90
2611;DHT22;5612;51.134;17.058;2022-08-25T04:55:11;20.30;99.90
2611;DHT22;5612;51.134;17.058;2022-08-25T04:57:39;20.40;99.90
2611;DHT22;5612;51.134;17.058;2022-08-25T05:00:10;20.40;99.90
2611;DHT22;5612;51.134;17.058;2022-08-25T05:02:39;20.50;99.90
2611;DHT22;5612;51.134;17.058;2022-08-25T05:05:07;20.50;99.90
2611;DHT22;5612;51.134;17.058;2022-08-25T05:07:36;20.50;99.90
2611;DHT22;5612;51.134;17.058;2022-08-25T05:10:06;20.60;99.90
2611;DHT22;5612;51.134;17.058;2022-08-25T05:12:36;20.70;99.90
2611;DHT22;5612;51.134;17.058;2022-08-25T05:15:07;20.70;99.90
2611;DHT22;5612;51.134;17.058;2022-08-25T05:17:50;20.70;99.90
2611;DHT22;5612;51.134;17.058;2022-08-25T05:20:22;20.80;99.90
2611;DHT22;5612;51.134;17.058;2022-08-25T05:22:51;20.90;99.90
2611;DHT22;5612;51.134;17.058;2022-08-25T05:25:20;20.90;99.90
2611;DHT22;5612;51.134;17.058;2022-08-25T05:27:50;21.00;99.90
2611;DHT22;5612;51.134;17.058;2022-08-25T05:30:19;21.00;99.90
2611;DHT22;5612;51.134;17.058;2022-08-25T05:32:47;21.10;99.90
2611;DHT22;5612;51.134;17.058;2022-08-25T05:35:16;21.10;99.90
2611;DHT22;5612;51.134;17.058;2022-08-25T05:37:46;21.20;99.90
2611;DHT22;5612;51.134;17.058;2022-08-25T05:40:15;21.30;99.90
2611;DHT22;5612;51.134;17.058;2022-08-25T05:42:43;21.30;99.90
2611;DHT22;5612;51.134;17.058;2022-08-25T05:45:13;21.40;99.90
2611;DHT22;5612;51.134;17.058;2022-08-25T05:47:46;21.40;99.90
2611;DHT22;5612;51.134;17.058;2022-08-25T05:50:16;21.50;99.90
2611;DHT22;5612;51.134;17.058;2022-08-25T05:52:44;21.60;99.90
2611;DHT22;5612;51.134;17.058;2022-08-25T05:55:13;21.70;99.90
2611;DHT22;5612;51.134;17.058;2022-08-25T05:57:42;21.60;99.90
2611;DHT22;5612;51.134;17.058;2022-08-25T06:00:13;21.60;99.90
2611;DHT22;5612;51.134;17.058;2022-08-25T06:02:43;21.60;99.90
2611;DHT22;5612;51.134;17.058;2022-08-25T06:05:14;21.60;99.90
2611;DHT22;5612;51.134;17.058;2022-08-25T06:07:44;21.80;99.90
2611;DHT22;5612;51.134;17.058;2022-08-25T06:10:13;21.90;99.90
2611;DHT22;5612;51.134;17.058;2022-08-25T06:12:43;22.00;99.90
2611;DHT22;5612;51.134;17.058;2022-08-25T06:15:15;22.00;99.90
2611;DHT22;5612;51.134;17.058;2022-08-25T06:17:45;22.00;99.90
2611;DHT22;5612;51.134;17.058;2022-08-25T06:20:15;22.10;99.90
2611;DHT22;5612;51.134;17.058;2022-08-25T06:22:48;22.30;99.90
2611;DHT22;5612;51.134;17.058;2022-08-25T06:25:19;22.50;99.90
2611;DHT22;5612;51.134;17.058;2022-08-25T06:27:48;22.70;99.90
2611;DHT22;5612;51.134;17.058;2022-08-25T06:30:20;23.00;99.90
2611;DHT22;5612;51.134;17.058;2022-08-25T06:32:55;23.20;99.90
2611;DHT22;5612;51.134;17.058;2022-08-25T06:35:23;23.20;99.90
2611;DHT22;5612;51.134;17.058;2022-08-25T06:37:52;23.40;99.90
2611;DHT22;5612;51.134;17.058;2022-08-25T06:40:20;23.50;99.90
2611;DHT22;5612;51.134;17.058;2022-08-25T06:42:50;23.70;99.90
2611;DHT22;5612;51.134;17.058;2022-08-25T06:45:20;23.90;98.30
2611;DHT22;5612;51.134;17.058;2022-08-25T06:47:49;24.10;91.50
2611;DHT22;5612;51.134;17.058;2022-08-25T06:50:19;24.00;65.60
2611;DHT22;5612;51.134;17.058;2022-08-25T06:52:48;24.20;77.60
2611;DHT22;5612;51.134;17.058;2022-08-25T06:55:18;24.70;42.90
2611;DHT22;5612;51.134;17.058;2022-08-25T06:57:47;25.00;9.20
2611;DHT22;5612;51.134;17.058;2022-08-25T07:00:16;25.20;1.00
2611;DHT22;5612;51.134;17.058;2022-08-25T07:02:46;25.70;1.00
2611;DHT22;5612;51.134;17.058;2022-08-25T07:05:19;26.10;1.00
2611;DHT22;5612;51.134;17.058;2022-08-25T07:07:59;26.10;1.00
2611;DHT22;5612;51.134;17.058;2022-08-25T07:10:28;26.20;1.00
2611;DHT22;5612;51.134;17.058;2022-08-25T07:12:57;26.20;1.00
2611;DHT22;5612;51.134;17.058;2022-08-25T07:15:26;26.40;1.00
2611;DHT22;5612;51.134;17.058;2022-08-25T07:17:56;26.80;99.90
2611;DHT22;5612;51.134;17.058;2022-08-25T07:20:25;26.90;99.90
2611;DHT22;5612;51.134;17.058;2022-08-25T07:22:56;27.00;99.90
2611;DHT22;5612;51.134;17.058;2022-08-25T07:25:25;27.10;99.90
2611;DHT22;5612;51.134;17.058;2022-08-25T07:27:54;27.40;1.00
2611;DHT22;5612;51.134;17.058;2022-08-25T07:30:25;27.40;99.90
2611;DHT22;5612;51.134;17.058;2022-08-25T07:32:55;27.80;99.90
2611;DHT22;5612;51.134;17.058;2022-08-25T07:35:24;28.20;99.90
2611;DHT22;5612;51.134;17.058;2022-08-25T07:38:05;28.50;1.00
2611;DHT22;5612;51.134;17.058;2022-08-25T07:40:37;28.30;1.00
2611;DHT22;5612;51.134;17.058;2022-08-25T07:43:09;28.10;99.90
2611;DHT22;5612;51.134;17.058;2022-08-25T07:45:38;28.00;1.00
2611;DHT22;5612;51.134;17.058;2022-08-25T07:48:17;28.20;28.10
2611;DHT22;5612;51.134;17.058;2022-08-25T07:50:47;28.50;95.50
2611;DHT22;5612;51.134;17.058;2022-08-25T07:53:16;28.70;99.90
2611;DHT22;5612;51.134;17.058;2022-08-25T07:55:45;28.80;99.90
2611;DHT22;5612;51.134;17.058;2022-08-25T07:58:13;28.60;99.90
2611;DHT22;5612;51.134;17.058;2022-08-25T08:00:46;28.70;99.90
2611;DHT22;5612;51.134;17.058;2022-08-25T08:03:18;29.10;99.90
2611;DHT22;5612;51.134;17.058;2022-08-25T08:06:08;30.30;99.90
2611;DHT22;5612;51.134;17.058;2022-08-25T08:08:37;31.10;87.80
2611;DHT22;5612;51.134;17.058;2022-08-25T08:11:14;31.80;91.40
2611;DHT22;5612;51.134;17.058;2022-08-25T08:13:45;32.30;3.60
2611;DHT22;5612;51.134;17.058;2022-08-25T08:16:18;32.50;5.50
2611;DHT22;5612;51.134;17.058;2022-08-25T08:18:48;33.20;1.00
2611;DHT22;5612;51.134;17.058;2022-08-25T08:21:19;34.00;1.00
2611;DHT22;5612;51.134;17.058;2022-08-25T08:23:49;34.60;1.00
2611;DHT22;5612;51.134;17.058;2022-08-25T08:26:24;34.90;1.00
2611;DHT22;5612;51.134;17.058;2022-08-25T08:29:14;35.70;1.00
2611;DHT22;5612;51.134;17.058;2022-08-25T08:31:43;35.90;1.00
2611;DHT22;5612;51.134;17.058;2022-08-25T08:34:16;36.50;1.00
2611;DHT22;5612;51.134;17.058;2022-08-25T08:36:50;37.20;1.00
2611;DHT22;5612;51.134;17.058;2022-08-25T08:39:20;37.70;1.00
2611;DHT22;5612;51.134;17.058;2022-08-25T08:41:56;38.40;1.00
2611;DHT22;5612;51.134;17.058;2022-08-25T08:45:11;38.30;1.00
2611;DHT22;5612;51.134;17.058;2022-08-25T08:47:51;38.30;1.00
2611;DHT22;5612;51.134;17.058;2022-08-25T08:50:29;38.80;1.00
2611;DHT22;5612;51.134;17.058;2022-08-25T08:53:04;38.50;1.00
2611;DHT22;5612;51.134;17.058;2022-08-25T08:55:38;39.50;1.00
2611;DHT22;5612;51.134;17.058;2022-08-25T08:58:13;40.20;1.00
2611;DHT22;5612;51.134;17.058;2022-08-25T09:00:46;40.50;1.00
2611;DHT22;5612;51.134;17.058;2022-08-25T09:03:29;40.10;1.00
2611;DHT22;5612;51.134;17.058;2022-08-25T09:06:05;40.00;1.00
2611;DHT22;5612;51.134;17.058;2022-08-25T09:08:37;39.70;1.00
2611;DHT22;5612;51.134;17.058;2022-08-25T09:11:15;39.80;1.00
2611;DHT22;5612;51.134;17.058;2022-08-25T09:14:03;39.70;1.00
2611;DHT22;5612;51.134;17.058;2022-08-25T09:16:51;39.70;1.00
2611;DHT22;5612;51.134;17.058;2022-08-25T09:22:26;38.10;1.00
2611;DHT22;5612;51.134;17.058;2022-08-25T09:25:09;37.00;1.00
2611;DHT22;5612;51.134;17.058;2022-08-25T09:27:50;36.60;1.00
2611;DHT22;5612;51.134;17.058;2022-08-25T09:30:21;36.80;1.00
2611;DHT22;5612;51.134;17.058;2022-08-25T09:32:53;37.20;1.00
2611;DHT22;5612;51.134;17.058;2022-08-25T09:35:34;36.70;1.00
2611;DHT22;5612;51.134;17.058;2022-08-25T09:38:07;36.00;1.00
2611;DHT22;5612;51.134;17.058;2022-08-25T09:40:38;35.20;1.00
2611;DHT22;5612;51.134;17.058;2022-08-25T09:43:20;35.40;1.00
2611;DHT22;5612;51.134;17.058;2022-08-25T09:45:57;35.60;1.00
2611;DHT22;5612;51.134;17.058;2022-08-25T09:48:31;35.80;1.00
2611;DHT22;5612;51.134;17.058;2022-08-25T09:51:18;36.10;1.00
2611;DHT22;5612;51.134;17.058;2022-08-25T09:53:53;36.50;1.00
2611;DHT22;5612;51.134;17.058;2022-08-25T09:56:24;36.40;1.00
2611;DHT22;5612;51.134;17.058;2022-08-25T09:58:54;37.10;1.00
2611;DHT22;5612;51.134;17.058;2022-08-25T10:01:29;38.50;1.00
2611;DHT22;5612;51.134;17.058;2022-08-25T10:04:02;39.20;1.00
2611;DHT22;5612;51.134;17.058;2022-08-25T10:06:41;39.80;1.00
2611;DHT22;5612;51.134;17.058;2022-08-25T10:09:24;40.00;1.00
2611;DHT22;5612;51.134;17.058;2022-08-25T10:11:55;40.30;1.00
2611;DHT22;5612;51.134;17.058;2022-08-25T10:14:32;40.30;1.00
2611;DHT22;5612;51.134;17.058;2022-08-25T10:17:15;41.00;1.00
2611;DHT22;5612;51.134;17.058;2022-08-25T10:22:43;43.00;1.00
2611;DHT22;5612;51.134;17.058;2022-08-25T10:25:27;43.80;1.00
2611;DHT22;5612;51.134;17.058;2022-08-25T10:28:06;44.80;1.00
2611;DHT22;5612;51.134;17.058;2022-08-25T10:30:50;44.60;1.00
2611;DHT22;5612;51.134;17.058;2022-08-25T10:33:28;44.60;1.00
2611;DHT22;5612;51.134;17.058;2022-08-25T10:36:06;44.90;1.00
2611;DHT22;5612;51.134;17.058;2022-08-25T10:38:39;44.40;1.00
2611;DHT22;5612;51.134;17.058;2022-08-25T10:44:18;44.40;1.00
2611;DHT22;5612;51.134;17.058;2022-08-25T10:47:23;45.00;1.00
2611;DHT22;5612;51.134;17.058;2022-08-25T10:50:00;45.70;1.00
2611;DHT22;5612;51.134;17.058;2022-08-25T10:52:36;46.90;1.00
2611;DHT22;5612;51.134;17.058;2022-08-25T10:55:14;47.50;1.00
2611;DHT22;5612;51.134;17.058;2022-08-25T10:57:52;47.60;1.00
2611;DHT22;5612;51.134;17.058;2022-08-25T11:00:28;47.50;1.00
2611;DHT22;5612;51.134;17.058;2022-08-25T11:03:13;47.10;1.00
2611;DHT22;5612;51.134;17.058;2022-08-25T11:05:48;46.90;1.00
2611;DHT22;5612;51.134;17.058;2022-08-25T11:08:28;45.90;1.00
2611;DHT22;5612;51.134;17.058;2022-08-25T11:11:08;45.70;1.00
2611;DHT22;5612;51.134;17.058;2022-08-25T11:13:47;46.50;1.00
2611;DHT22;5612;51.134;17.058;2022-08-25T11:16:27;46.60;1.00
2611;DHT22;5612;51.134;17.058;2022-08-25T11:19:04;46.70;1.00
2611;DHT22;5612;51.134;17.058;2022-08-25T11:21:40;47.50;1.00
2611;DHT22;5612;51.134;17.058;2022-08-25T11:24:26;47.30;1.00
2611;DHT22;5612;51.134;17.058;2022-08-25T11:26:58;45.70;1.00
2611;DHT22;5612;51.134;17.058;2022-08-25T11:29:32;45.50;1.00
2611;DHT22;5612;51.134;17.058;2022-08-25T11:32:05;44.70;1.00
2611;DHT22;5612;51.134;17.058;2022-08-25T11:34:36;45.30;1.00
2611;DHT22;5612;51.134;17.058;2022-08-25T11:37:18;46.00;1.00
2611;DHT22;5612;51.134;17.058;2022-08-25T11:40:18;46.10;1.00
2611;DHT22;5612;51.134;17.058;2022-08-25T11:43:13;46.50;1.00
2611;DHT22;5612;51.134;17.058;2022-08-25T11:46:16;47.60;1.00
2611;DHT22;5612;51.134;17.058;2022-08-25T11:48:59;46.90;1.00
2611;DHT22;5612;51.134;17.058;2022-08-25T11:51:34;46.10;1.00
2611;DHT22;5612;51.134;17.058;2022-08-25T11:54:17;45.60;1.00
2611;DHT22;5612;51.134;17.058;2022-08-25T11:56:53;45.60;1.00
2611;DHT22;5612;51.134;17.058;2022-08-25T12:00:04;45.70;1.00
2611;DHT22;5612;51.134;17.058;2022-08-25T12:02:39;45.20;1.00
2611;DHT22;5612;51.134;17.058;2022-08-25T12:05:11;44.60;1.00
2611;DHT22;5612;51.134;17.058;2022-08-25T12:08:07;45.40;1.00
2611;DHT22;5612;51.134;17.058;2022-08-25T12:11:00;45.50;1.00
2611;DHT22;5612;51.134;17.058;2022-08-25T12:13:42;44.90;1.00
2611;DHT22;5612;51.134;17.058;2022-08-25T12:16:41;44.10;1.00
2611;DHT22;5612;51.134;17.058;2022-08-25T12:22:39;43.80;1.00
2611;DHT22;5612;51.134;17.058;2022-08-25T12:28:30;44.50;1.00
2611;DHT22;5612;51.134;17.058;2022-08-25T12:31:06;45.10;1.00
2611;DHT22;5612;51.134;17.058;2022-08-25T12:33:44;45.10;1.00
2611;DHT22;5612;51.134;17.058;2022-08-25T12:36:28;44.10;1.00
2611;DHT22;5612;51.134;17.058;2022-08-25T12:39:19;44.80;1.00
2611;DHT22;5612;51.134;17.058;2022-08-25T12:41:57;45.80;1.00
2611;DHT22;5612;51.134;17.058;2022-08-25T12:47:33;46.50;1.00
2611;DHT22;5612;51.134;17.058;2022-08-25T12:50:27;46.90;1.00
2611;DHT22;5612;51.134;17.058;2022-08-25T12:53:10;46.30;1.00
2611;DHT22;5612;51.134;17.058;2022-08-25T12:55:45;47.00;1.00
2611;DHT22;5612;51.134;17.058;2022-08-25T12:58:14;47.00;1.00
2611;DHT22;5612;51.134;17.058;2022-08-25T13:01:09;46.90;1.00
2611;DHT22;5612;51.134;17.058;2022-08-25T13:04:39;47.20;1.00
2611;DHT22;5612;51.134;17.058;2022-08-25T13:07:25;47.00;1.00
2611;DHT22;5612;51.134;17.058;2022-08-25T13:10:15;46.70;1.00
2611;DHT22;5612;51.134;17.058;2022-08-25T13:12:53;46.00;1.00
2611;DHT22;5612;51.134;17.058;2022-08-25T13:15:32;45.10;1.00
2611;DHT22;5612;51.134;17.058;2022-08-25T13:18:17;44.90;1.00
2611;DHT22;5612;51.134;17.058;2022-08-25T13:20:50;45.60;1.00
2611;DHT22;5612;51.134;17.058;2022-08-25T13:23:25;46.10;1.00
2611;DHT22;5612;51.134;17.058;2022-08-25T13:25:56;45.20;1.00
2611;DHT22;5612;51.134;17.058;2022-08-25T13:28:34;44.20;1.00
2611;DHT22;5612;51.134;17.058;2022-08-25T13:31:14;44.00;1.00
2611;DHT22;5612;51.134;17.058;2022-08-25T13:33:53;43.10;1.00
2611;DHT22;5612;51.134;17.058;2022-08-25T13:36:26;42.60;1.00
2611;DHT22;5612;51.134;17.058;2022-08-25T13:39:24;42.40;1.00
2611;DHT22;5612;51.134;17.058;2022-08-25T13:42:16;42.20;1.00
2611;DHT22;5612;51.134;17.058;2022-08-25T13:44:56;42.90;1.00
2611;DHT22;5612;51.134;17.058;2022-08-25T13:47:34;42.00;1.00
2611;DHT22;5612;51.134;17.058;2022-08-25T13:50:31;41.40;1.00
2611;DHT22;5612;51.134;17.058;2022-08-25T13:53:05;41.90;1.00
2611;DHT22;5612;51.134;17.058;2022-08-25T13:55:40;42.10;1.00
2611;DHT22;5612;51.134;17.058;2022-08-25T13:58:21;41.50;1.00
2611;DHT22;5612;51.134;17.058;2022-08-25T14:01:12;40.10;1.00
2611;DHT22;5612;51.134;17.058;2022-08-25T14:04:28;39.70;1.00
2611;DHT22;5612;51.134;17.058;2022-08-25T14:07:24;39.50;1.00
2611;DHT22;5612;51.134;17.058;2022-08-25T14:10:04;39.30;1.00
2611;DHT22;5612;51.134;17.058;2022-08-25T14:12:36;39.00;1.00
2611;DHT22;5612;51.134;17.058;2022-08-25T14:15:09;39.20;1.00
2611;DHT22;5612;51.134;17.058;2022-08-25T14:17:42;40.30;1.00
2611;DHT22;5612;51.134;17.058;2022-08-25T14:20:20;41.70;1.00
2611;DHT22;5612;51.134;17.058;2022-08-25T14:22:59;42.60;1.00
2611;DHT22;5612;51.134;17.058;2022-08-25T14:25:36;42.00;1.00
2611;DHT22;5612;51.134;17.058;2022-08-25T14:28:12;41.50;1.00
2611;DHT22;5612;51.134;17.058;2022-08-25T14:30:45;40.30;1.00
2611;DHT22;5612;51.134;17.058;2022-08-25T14:33:22;40.70;1.00
2611;DHT22;5612;51.134;17.058;2022-08-25T14:35:58;41.00;1.00
2611;DHT22;5612;51.134;17.058;2022-08-25T14:38:30;41.20;1.00
2611;DHT22;5612;51.134;17.058;2022-08-25T14:41:01;41.60;1.00
2611;DHT22;5612;51.134;17.058;2022-08-25T14:43:33;41.80;1.00
2611;DHT22;5612;51.134;17.058;2022-08-25T14:46:08;41.50;1.00
2611;DHT22;5612;51.134;17.058;2022-08-25T14:48:45;41.30;1.00
2611;DHT22;5612;51.134;17.058;2022-08-25T14:51:17;41.40;1.00
2611;DHT22;5612;51.134;17.058;2022-08-25T14:53:47;41.90;1.00
2611;DHT22;5612;51.134;17.058;2022-08-25T14:56:19;42.30;1.00
2611;DHT22;5612;51.134;17.058;2022-08-25T14:58:56;42.50;1.00
2611;DHT22;5612;51.134;17.058;2022-08-25T15:01:30;42.20;1.00
2611;DHT22;5612;51.134;17.058;2022-08-25T15:04:07;42.40;1.00
2611;DHT22;5612;51.134;17.058;2022-08-25T15:06:43;41.60;1.00
2611;DHT22;5612;51.134;17.058;2022-08-25T15:09:15;41.20;1.00
2611;DHT22;5612;51.134;17.058;2022-08-25T15:11:50;40.40;1.00
2611;DHT22;5612;51.134;17.058;2022-08-25T15:14:30;40.40;1.00
2611;DHT22;5612;51.134;17.058;2022-08-25T15:17:02;40.70;1.00
2611;DHT22;5612;51.134;17.058;2022-08-25T15:19:39;40.90;1.00
2611;DHT22;5612;51.134;17.058;2022-08-25T15:22:18;40.80;1.00
2611;DHT22;5612;51.134;17.058;2022-08-25T15:25:17;40.20;1.00
2611;DHT22;5612;51.134;17.058;2022-08-25T15:27:56;39.00;1.00
2611;DHT22;5612;51.134;17.058;2022-08-25T15:30:41;38.20;1.00
2611;DHT22;5612;51.134;17.058;2022-08-25T15:33:22;37.60;1.00
2611;DHT22;5612;51.134;17.058;2022-08-25T15:36:10;36.80;1.00
2611;DHT22;5612;51.134;17.058;2022-08-25T15:38:48;35.90;1.00
2611;DHT22;5612;51.134;17.058;2022-08-25T15:41:32;35.40;1.00
2611;DHT22;5612;51.134;17.058;2022-08-25T15:44:12;34.80;1.00
2611;DHT22;5612;51.134;17.058;2022-08-25T15:46:45;34.60;1.00
2611;DHT22;5612;51.134;17.058;2022-08-25T15:49:25;34.50;1.00
2611;DHT22;5612;51.134;17.058;2022-08-25T15:52:21;34.10;1.00
2611;DHT22;5612;51.134;17.058;2022-08-25T15:55:19;33.40;1.00
2611;DHT22;5612;51.134;17.058;2022-08-25T15:57:55;33.00;1.00
2611;DHT22;5612;51.134;17.058;2022-08-25T16:00:25;32.40;1.00
2611;DHT22;5612;51.134;17.058;2022-08-25T16:03:25;32.10;1.00
2611;DHT22;5612;51.134;17.058;2022-08-25T16:07:18;31.60;1.00
2611;DHT22;5612;51.134;17.058;2022-08-25T16:10:33;31.20;18.70
2611;DHT22;5612;51.134;17.058;2022-08-25T16:14:12;31.20;47.60
2611;DHT22;5612;51.134;17.058;2022-08-25T16:17:23;31.00;73.90
2611;DHT22;5612;51.134;17.058;2022-08-25T16:19:59;31.10;71.70
2611;DHT22;5612;51.134;17.058;2022-08-25T16:23:05;31.00;67.70
2611;DHT22;5612;51.134;17.058;2022-08-25T16:25:59;31.00;79.80
2611;DHT22;5612;51.134;17.058;2022-08-25T16:29:01;31.00;99.90
2611;DHT22;5612;51.134;17.058;2022-08-25T16:31:36;30.70;99.90
2611;DHT22;5612;51.134;17.058;2022-08-25T16:34:09;30.50;99.90
2611;DHT22;5612;51.134;17.058;2022-08-25T16:36:51;30.50;99.90
2611;DHT22;5612;51.134;17.058;2022-08-25T16:40:06;30.50;99.90
2611;DHT22;5612;51.134;17.058;2022-08-25T16:42:37;30.30;99.90
2611;DHT22;5612;51.134;17.058;2022-08-25T16:45:09;30.20;99.90
2611;DHT22;5612;51.134;17.058;2022-08-25T16:47:59;30.10;99.90
2611;DHT22;5612;51.134;17.058;2022-08-25T16:51:08;29.90;99.90
2611;DHT22;5612;51.134;17.058;2022-08-25T16:54:32;29.80;99.90
2611;DHT22;5612;51.134;17.058;2022-08-25T16:57:50;29.70;99.90
2611;DHT22;5612;51.134;17.058;2022-08-25T17:01:05;29.70;99.90
2611;DHT22;5612;51.134;17.058;2022-08-25T17:03:51;29.70;99.90
2611;DHT22;5612;51.134;17.058;2022-08-25T17:06:23;29.80;99.90
2611;DHT22;5612;51.134;17.058;2022-08-25T17:08:55;29.60;99.90